sensor_id;sensor_type;location;lat;lon;timestamp;P1;P2;P0
76304;PMS7003;65111;50.536;19.204;2023-06-22T00:00:51;16.00;15.00;11.00
76304;PMS7003;65111;50.536;19.204;2023-06-22T00:03:18;23.50;23.00;15.50
76304;PMS7003;65111;50.536;19.204;2023-06-22T00:05:48;28.00;28.00;17.00
76304;PMS7003;65111;50.536;19.204;2023-06-22T00:08:15;23.00;23.00;16.00
76304;PMS7003;65111;50.536;19.204;2023-06-22T00:13:08;26.00;23.00;16.00
76304;PMS7003;65111;50.536;19.204;2023-06-22T00:15:35;26.50;26.50;18.00
76304;PMS7003;65111;50.536;19.204;2023-06-22T00:18:03;23.50;22.50;16.50
76304;PMS7003;65111;50.536;19.204;2023-06-22T00:20:29;22.50;22.00;15.00
76304;PMS7003;65111;50.536;19.204;2023-06-22T00:22:56;19.00;19.00;12.00
76304;PMS7003;65111;50.536;19.204;2023-06-22T00:25:23;19.00;17.00;12.00
76304;PMS7003;65111;50.536;19.204;2023-06-22T00:27:49;12.00;12.00;10.00
76304;PMS7003;65111;50.536;19.204;2023-06-22T00:30:16;21.33;20.00;14.00
76304;PMS7003;65111;50.536;19.204;2023-06-22T00:32:44;30.00;28.00;18.00
76304;PMS7003;65111;50.536;19.204;2023-06-22T00:35:11;27.50;27.00;17.00
76304;PMS7003;65111;50.536;19.204;2023-06-22T00:37:38;24.00;23.00;16.50
76304;PMS7003;65111;50.536;19.204;2023-06-22T00:40:10;24.00;21.00;15.00
76304;PMS7003;65111;50.536;19.204;2023-06-22T00:42:37;22.00;20.00;14.50
76304;PMS7003;65111;50.536;19.204;2023-06-22T00:45:08;21.00;20.00;14.00
76304;PMS7003;65111;50.536;19.204;2023-06-22T00:47:34;19.00;18.50;12.50
76304;PMS7003;65111;50.536;19.204;2023-06-22T00:50:01;20.00;17.50;11.00
76304;PMS7003;65111;50.536;19.204;2023-06-22T00:52:29;20.00;19.00;13.00
76304;PMS7003;65111;50.536;19.204;2023-06-22T00:54:57;19.00;19.00;14.00
76304;PMS7003;65111;50.536;19.204;2023-06-22T00:57:28;28.33;26.67;17.33
76304;PMS7003;65111;50.536;19.204;2023-06-22T00:59:54;25.00;24.67;16.33
76304;PMS7003;65111;50.536;19.204;2023-06-22T01:02:20;17.33;16.00;13.00
76304;PMS7003;65111;50.536;19.204;2023-06-22T01:04:46;17.00;16.00;9.00
76304;PMS7003;65111;50.536;19.204;2023-06-22T01:10:07;17.00;16.00;10.50
76304;PMS7003;65111;50.536;19.204;2023-06-22T01:12:39;14.50;13.50;9.00
76304;PMS7003;65111;50.536;19.204;2023-06-22T01:15:15;12.00;11.00;7.00
76304;PMS7003;65111;50.536;19.204;2023-06-22T01:17:48;9.50;9.50;7.00
76304;PMS7003;65111;50.536;19.204;2023-06-22T01:20:17;10.33;9.00;7.00
76304;PMS7003;65111;50.536;19.204;2023-06-22T01:23:03;9.00;7.50;6.00
76304;PMS7003;65111;50.536;19.204;2023-06-22T01:26:04;13.00;11.00;7.00
76304;PMS7003;65111;50.536;19.204;2023-06-22T01:28:47;14.00;13.00;8.50
76304;PMS7003;65111;50.536;19.204;2023-06-22T01:31:16;13.50;12.50;8.50
76304;PMS7003;65111;50.536;19.204;2023-06-22T01:33:45;15.00;15.00;11.00
76304;PMS7003;65111;50.536;19.204;2023-06-22T01:36:15;17.00;16.00;12.00
76304;PMS7003;65111;50.536;19.204;2023-06-22T01:38:42;21.33;21.33;14.00
76304;PMS7003;65111;50.536;19.204;2023-06-22T01:41:10;19.00;16.50;12.50
76304;PMS7003;65111;50.536;19.204;2023-06-22T01:43:36;15.50;15.00;11.00
76304;PMS7003;65111;50.536;19.204;2023-06-22T01:46:03;13.00;11.00;6.00
76304;PMS7003;65111;50.536;19.204;2023-06-22T01:48:30;11.00;11.00;7.00
76304;PMS7003;65111;50.536;19.204;2023-06-22T01:50:57;11.00;11.00;7.00
76304;PMS7003;65111;50.536;19.204;2023-06-22T01:53:23;10.00;9.00;6.00
76304;PMS7003;65111;50.536;19.204;2023-06-22T01:55:50;10.00;8.67;6.33
76304;PMS7003;65111;50.536;19.204;2023-06-22T01:58:16;8.00;8.00;5.00
76304;PMS7003;65111;50.536;19.204;2023-06-22T02:00:44;6.50;6.50;5.00
76304;PMS7003;65111;50.536;19.204;2023-06-22T02:03:21;7.00;7.00;5.50
76304;PMS7003;65111;50.536;19.204;2023-06-22T02:06:04;10.00;9.50;7.00
76304;PMS7003;65111;50.536;19.204;2023-06-22T02:08:55;7.00;7.00;5.00
76304;PMS7003;65111;50.536;19.204;2023-06-22T02:11:24;13.00;13.00;8.67
76304;PMS7003;65111;50.536;19.204;2023-06-22T02:13:55;17.00;16.00;12.00
76304;PMS7003;65111;50.536;19.204;2023-06-22T02:16:23;13.00;11.00;5.00
76304;PMS7003;65111;50.536;19.204;2023-06-22T02:18:49;21.00;14.50;11.00
76304;PMS7003;65111;50.536;19.204;2023-06-22T02:21:17;13.50;12.50;8.00
76304;PMS7003;65111;50.536;19.204;2023-06-22T02:23:43;10.00;8.00;6.00
76304;PMS7003;65111;50.536;19.204;2023-06-22T02:26:09;7.00;7.00;5.00
76304;PMS7003;65111;50.536;19.204;2023-06-22T02:28:36;7.67;7.67;4.67
76304;PMS7003;65111;50.536;19.204;2023-06-22T02:31:02;6.67;6.67;5.00
76304;PMS7003;65111;50.536;19.204;2023-06-22T02:33:28;9.00;7.00;6.00
76304;PMS7003;65111;50.536;19.204;2023-06-22T02:35:54;7.67;7.00;5.00
76304;PMS7003;65111;50.536;19.204;2023-06-22T02:38:20;10.00;7.00;6.00
76304;PMS7003;65111;50.536;19.204;2023-06-22T02:40:46;14.50;11.00;8.00
76304;PMS7003;65111;50.536;19.204;2023-06-22T02:43:12;18.00;17.00;12.00
76304;PMS7003;65111;50.536;19.204;2023-06-22T02:45:39;21.00;18.00;12.00
76304;PMS7003;65111;50.536;19.204;2023-06-22T02:48:05;30.50;23.00;14.00
76304;PMS7003;65111;50.536;19.204;2023-06-22T02:50:31;21.00;21.00;14.00
76304;PMS7003;65111;50.536;19.204;2023-06-22T02:52:56;33.50;26.50;19.00
76304;PMS7003;65111;50.536;19.204;2023-06-22T02:55:23;21.00;18.00;11.50
76304;PMS7003;65111;50.536;19.204;2023-06-22T02:57:49;20.00;19.00;12.50
76304;PMS7003;65111;50.536;19.204;2023-06-22T03:00:18;15.50;14.00;12.00
76304;PMS7003;65111;50.536;19.204;2023-06-22T03:02:45;19.00;18.00;12.50
76304;PMS7003;65111;50.536;19.204;2023-06-22T03:05:12;21.33;19.67;12.33
76304;PMS7003;65111;50.536;19.204;2023-06-22T03:07:40;20.00;19.00;12.67
76304;PMS7003;65111;50.536;19.204;2023-06-22T03:10:08;27.00;20.00;14.00
76304;PMS7003;65111;50.536;19.204;2023-06-22T03:12:35;22.00;21.00;14.00
76304;PMS7003;65111;50.536;19.204;2023-06-22T03:15:02;25.50;24.50;15.00
76304;PMS7003;65111;50.536;19.204;2023-06-22T03:17:29;21.33;19.00;13.33
76304;PMS7003;65111;50.536;19.204;2023-06-22T03:19:55;20.00;19.00;12.00
76304;PMS7003;65111;50.536;19.204;2023-06-22T03:22:20;19.00;18.00;12.67
76304;PMS7003;65111;50.536;19.204;2023-06-22T03:24:46;16.00;15.00;11.50
76304;PMS7003;65111;50.536;19.204;2023-06-22T03:27:12;20.33;19.33;12.00
76304;PMS7003;65111;50.536;19.204;2023-06-22T03:29:38;18.00;15.00;11.00
76304;PMS7003;65111;50.536;19.204;2023-06-22T03:32:04;15.00;15.00;10.00
76304;PMS7003;65111;50.536;19.204;2023-06-22T03:34:31;16.00;16.00;11.00
76304;PMS7003;65111;50.536;19.204;2023-06-22T03:36:59;17.00;15.00;10.00
76304;PMS7003;65111;50.536;19.204;2023-06-22T03:39:25;25.00;25.00;17.00
76304;PMS7003;65111;50.536;19.204;2023-06-22T03:41:51;22.00;18.00;13.00
76304;PMS7003;65111;50.536;19.204;2023-06-22T03:44:17;18.50;18.50;12.00
76304;PMS7003;65111;50.536;19.204;2023-06-22T03:46:43;18.00;17.50;12.00
76304;PMS7003;65111;50.536;19.204;2023-06-22T03:49:09;25.50;23.50;14.50
76304;PMS7003;65111;50.536;19.204;2023-06-22T03:51:35;26.50;20.50;16.00
76304;PMS7003;65111;50.536;19.204;2023-06-22T03:54:01;28.33;27.00;19.33
76304;PMS7003;65111;50.536;19.204;2023-06-22T03:56:27;36.33;32.33;20.00
76304;PMS7003;65111;50.536;19.204;2023-06-22T03:58:52;30.00;29.00;19.00
76304;PMS7003;65111;50.536;19.204;2023-06-22T04:01:18;20.00;20.00;15.00
76304;PMS7003;65111;50.536;19.204;2023-06-22T04:03:44;20.00;20.00;15.00
76304;PMS7003;65111;50.536;19.204;2023-06-22T04:06:13;18.00;16.50;11.00
76304;PMS7003;65111;50.536;19.204;2023-06-22T04:08:39;15.50;14.50;10.00
76304;PMS7003;65111;50.536;19.204;2023-06-22T04:11:06;16.33;11.67;8.00
76304;PMS7003;65111;50.536;19.204;2023-06-22T04:13:32;19.00;18.50;13.50
76304;PMS7003;65111;50.536;19.204;2023-06-22T04:15:58;17.50;17.50;10.00
76304;PMS7003;65111;50.536;19.204;2023-06-22T04:18:26;17.00;13.00;9.00
76304;PMS7003;65111;50.536;19.204;2023-06-22T04:20:52;22.50;22.50;14.50
76304;PMS7003;65111;50.536;19.204;2023-06-22T04:23:18;22.00;21.00;14.00
76304;PMS7003;65111;50.536;19.204;2023-06-22T04:25:44;28.00;24.50;15.00
76304;PMS7003;65111;50.536;19.204;2023-06-22T04:28:10;29.00;25.00;16.00
76304;PMS7003;65111;50.536;19.204;2023-06-22T04:30:38;29.00;28.00;17.00
76304;PMS7003;65111;50.536;19.204;2023-06-22T04:33:12;27.00;25.00;18.00
76304;PMS7003;65111;50.536;19.204;2023-06-22T04:35:39;26.00;25.00;17.00
76304;PMS7003;65111;50.536;19.204;2023-06-22T04:38:07;28.50;27.50;18.00
76304;PMS7003;65111;50.536;19.204;2023-06-22T04:40:33;29.00;29.00;18.50
76304;PMS7003;65111;50.536;19.204;2023-06-22T04:42:59;23.50;23.00;17.00
76304;PMS7003;65111;50.536;19.204;2023-06-22T04:45:28;26.50;26.50;17.00
76304;PMS7003;65111;50.536;19.204;2023-06-22T04:47:55;26.50;23.50;17.00
76304;PMS7003;65111;50.536;19.204;2023-06-22T04:50:21;29.00;29.00;20.00
76304;PMS7003;65111;50.536;19.204;2023-06-22T04:52:49;34.00;31.00;20.50
76304;PMS7003;65111;50.536;19.204;2023-06-22T04:55:16;26.00;26.00;18.50
76304;PMS7003;65111;50.536;19.204;2023-06-22T04:57:44;33.00;29.00;18.00
76304;PMS7003;65111;50.536;19.204;2023-06-22T05:00:17;34.00;30.00;20.00
76304;PMS7003;65111;50.536;19.204;2023-06-22T05:02:48;28.00;27.00;18.00
76304;PMS7003;65111;50.536;19.204;2023-06-22T05:05:15;30.00;29.00;20.00
76304;PMS7003;65111;50.536;19.204;2023-06-22T05:07:42;26.00;26.00;19.00
76304;PMS7003;65111;50.536;19.204;2023-06-22T05:10:10;29.00;29.00;18.00
76304;PMS7003;65111;50.536;19.204;2023-06-22T05:12:38;25.00;25.00;17.00
76304;PMS7003;65111;50.536;19.204;2023-06-22T05:15:05;24.00;24.00;15.00
76304;PMS7003;65111;50.536;19.204;2023-06-22T05:17:33;24.00;23.00;17.00
76304;PMS7003;65111;50.536;19.204;2023-06-22T05:19:59;21.00;21.00;15.50
76304;PMS7003;65111;50.536;19.204;2023-06-22T05:22:25;24.00;22.00;14.00
76304;PMS7003;65111;50.536;19.204;2023-06-22T05:24:51;20.50;18.00;12.50
76304;PMS7003;65111;50.536;19.204;2023-06-22T05:27:17;21.00;21.00;15.00
76304;PMS7003;65111;50.536;19.204;2023-06-22T05:29:43;20.33;20.00;15.33
76304;PMS7003;65111;50.536;19.204;2023-06-22T05:32:09;21.50;20.00;12.50
76304;PMS7003;65111;50.536;19.204;2023-06-22T05:34:35;16.00;16.00;11.00
76304;PMS7003;65111;50.536;19.204;2023-06-22T05:37:01;20.00;20.00;14.00
76304;PMS7003;65111;50.536;19.204;2023-06-22T05:39:28;18.00;17.00;13.00
76304;PMS7003;65111;50.536;19.204;2023-06-22T05:41:54;21.00;20.50;14.50
76304;PMS7003;65111;50.536;19.204;2023-06-22T05:44:20;18.00;18.00;13.00
76304;PMS7003;65111;50.536;19.204;2023-06-22T05:46:47;21.00;21.00;16.00
76304;PMS7003;65111;50.536;19.204;2023-06-22T05:49:13;19.00;19.00;13.50
76304;PMS7003;65111;50.536;19.204;2023-06-22T05:51:40;19.00;18.00;12.33
76304;PMS7003;65111;50.536;19.204;2023-06-22T05:54:06;18.00;18.00;12.00
76304;PMS7003;65111;50.536;19.204;2023-06-22T05:56:34;17.00;17.00;13.00
76304;PMS7003;65111;50.536;19.204;2023-06-22T05:59:00;13.00;13.00;8.33
76304;PMS7003;65111;50.536;19.204;2023-06-22T06:01:26;12.00;11.00;9.00
76304;PMS7003;65111;50.536;19.204;2023-06-22T06:03:52;12.00;12.00;8.00
76304;PMS7003;65111;50.536;19.204;2023-06-22T06:06:18;11.00;11.00;8.00
76304;PMS7003;65111;50.536;19.204;2023-06-22T06:08:49;12.00;12.00;9.00
76304;PMS7003;65111;50.536;19.204;2023-06-22T06:11:15;10.67;10.67;8.67
76304;PMS7003;65111;50.536;19.204;2023-06-22T06:13:41;11.67;11.00;8.33
76304;PMS7003;65111;50.536;19.204;2023-06-22T06:16:07;12.00;10.50;8.00
76304;PMS7003;65111;50.536;19.204;2023-06-22T06:18:32;11.50;11.50;8.00
76304;PMS7003;65111;50.536;19.204;2023-06-22T06:20:58;9.00;8.00;5.00
76304;PMS7003;65111;50.536;19.204;2023-06-22T06:23:24;11.00;9.50;8.50
76304;PMS7003;65111;50.536;19.204;2023-06-22T06:25:50;9.00;9.00;7.00
76304;PMS7003;65111;50.536;19.204;2023-06-22T06:28:16;10.67;8.67;6.67
76304;PMS7003;65111;50.536;19.204;2023-06-22T06:30:42;10.00;9.00;7.00
76304;PMS7003;65111;50.536;19.204;2023-06-22T06:33:08;14.33;12.33;9.33
76304;PMS7003;65111;50.536;19.204;2023-06-22T06:35:34;10.00;10.00;7.33
76304;PMS7003;65111;50.536;19.204;2023-06-22T06:38:01;9.00;8.25;6.00
76304;PMS7003;65111;50.536;19.204;2023-06-22T06:40:27;7.00;7.00;5.00
76304;PMS7003;65111;50.536;19.204;2023-06-22T06:42:53;10.00;8.50;7.00
76304;PMS7003;65111;50.536;19.204;2023-06-22T06:45:20;9.50;8.00;6.50
76304;PMS7003;65111;50.536;19.204;2023-06-22T06:47:53;7.50;6.75;5.00
76304;PMS7003;65111;50.536;19.204;2023-06-22T06:50:19;8.00;7.50;5.50
76304;PMS7003;65111;50.536;19.204;2023-06-22T06:52:47;7.00;7.00;5.00
76304;PMS7003;65111;50.536;19.204;2023-06-22T06:55:13;8.50;7.50;7.00
76304;PMS7003;65111;50.536;19.204;2023-06-22T06:57:39;10.00;10.00;7.50
76304;PMS7003;65111;50.536;19.204;2023-06-22T07:00:07;8.00;8.00;7.00
76304;PMS7003;65111;50.536;19.204;2023-06-22T07:02:37;6.50;6.50;4.50
76304;PMS7003;65111;50.536;19.204;2023-06-22T07:05:05;8.00;8.00;5.50
76304;PMS7003;65111;50.536;19.204;2023-06-22T07:07:32;7.75;7.75;5.25
76304;PMS7003;65111;50.536;19.204;2023-06-22T07:09:58;9.00;9.00;7.00
76304;PMS7003;65111;50.536;19.204;2023-06-22T07:12:24;8.00;8.00;6.00
76304;PMS7003;65111;50.536;19.204;2023-06-22T07:14:51;7.00;7.00;6.00
76304;PMS7003;65111;50.536;19.204;2023-06-22T07:17:18;8.33;8.00;6.67
76304;PMS7003;65111;50.536;19.204;2023-06-22T07:19:44;8.50;7.00;6.50
76304;PMS7003;65111;50.536;19.204;2023-06-22T07:22:10;6.00;6.00;5.00
76304;PMS7003;65111;50.536;19.204;2023-06-22T07:24:35;8.00;8.00;6.50
76304;PMS7003;65111;50.536;19.204;2023-06-22T07:27:02;9.67;9.67;6.67
76304;PMS7003;65111;50.536;19.204;2023-06-22T07:29:30;10.50;10.00;7.50
76304;PMS7003;65111;50.536;19.204;2023-06-22T07:31:57;10.25;10.00;7.00
76304;PMS7003;65111;50.536;19.204;2023-06-22T07:34:23;8.00;8.00;7.00
76304;PMS7003;65111;50.536;19.204;2023-06-22T07:36:49;9.00;9.00;7.00
76304;PMS7003;65111;50.536;19.204;2023-06-22T07:39:15;10.67;9.00;7.33
76304;PMS7003;65111;50.536;19.204;2023-06-22T07:41:40;6.50;6.50;5.00
76304;PMS7003;65111;50.536;19.204;2023-06-22T07:44:06;11.00;11.00;8.00
76304;PMS7003;65111;50.536;19.204;2023-06-22T07:46:32;10.67;9.33;8.67
76304;PMS7003;65111;50.536;19.204;2023-06-22T07:48:59;9.00;9.00;7.00
76304;PMS7003;65111;50.536;19.204;2023-06-22T07:51:25;11.50;11.00;8.00
76304;PMS7003;65111;50.536;19.204;2023-06-22T07:53:51;10.50;10.50;8.00
76304;PMS7003;65111;50.536;19.204;2023-06-22T07:56:17;11.00;11.00;9.00
76304;PMS7003;65111;50.536;19.204;2023-06-22T07:58:45;7.50;7.50;6.00
76304;PMS7003;65111;50.536;19.204;2023-06-22T08:01:13;11.00;11.00;9.00
76304;PMS7003;65111;50.536;19.204;2023-06-22T08:03:39;10.00;10.00;8.00
76304;PMS7003;65111;50.536;19.204;2023-06-22T08:06:05;9.50;9.50;8.50
76304;PMS7003;65111;50.536;19.204;2023-06-22T08:08:34;7.50;7.50;6.00
76304;PMS7003;65111;50.536;19.204;2023-06-22T08:11:01;17.50;15.00;12.00
76304;PMS7003;65111;50.536;19.204;2023-06-22T08:13:27;10.50;10.50;9.00
76304;PMS7003;65111;50.536;19.204;2023-06-22T08:15:53;13.00;13.00;11.00
76304;PMS7003;65111;50.536;19.204;2023-06-22T08:18:19;14.00;14.00;12.00
76304;PMS7003;65111;50.536;19.204;2023-06-22T08:20:45;12.00;12.00;8.00
76304;PMS7003;65111;50.536;19.204;2023-06-22T08:23:11;12.00;12.00;9.50
76304;PMS7003;65111;50.536;19.204;2023-06-22T08:25:37;12.00;12.00;10.00
76304;PMS7003;65111;50.536;19.204;2023-06-22T08:28:03;12.00;12.00;9.00
76304;PMS7003;65111;50.536;19.204;2023-06-22T08:30:30;12.50;12.25;10.00
76304;PMS7003;65111;50.536;19.204;2023-06-22T08:32:56;13.00;13.00;9.00
76304;PMS7003;65111;50.536;19.204;2023-06-22T08:35:22;12.67;12.33;10.67
76304;PMS7003;65111;50.536;19.204;2023-06-22T08:37:48;11.00;11.00;9.67
76304;PMS7003;65111;50.536;19.204;2023-06-22T08:40:20;10.00;9.00;8.00
76304;PMS7003;65111;50.536;19.204;2023-06-22T08:42:48;11.50;11.50;9.00
76304;PMS7003;65111;50.536;19.204;2023-06-22T08:45:15;14.00;12.67;10.00
76304;PMS7003;65111;50.536;19.204;2023-06-22T08:47:41;12.67;12.67;10.67
76304;PMS7003;65111;50.536;19.204;2023-06-22T08:50:08;14.00;14.00;11.00
76304;PMS7003;65111;50.536;19.204;2023-06-22T08:52:35;12.67;10.67;8.33
76304;PMS7003;65111;50.536;19.204;2023-06-22T08:55:02;10.00;10.00;8.50
76304;PMS7003;65111;50.536;19.204;2023-06-22T08:57:29;12.00;12.00;10.00
76304;PMS7003;65111;50.536;19.204;2023-06-22T08:59:58;11.00;11.00;9.00
76304;PMS7003;65111;50.536;19.204;2023-06-22T09:02:25;13.33;13.33;10.00
76304;PMS7003;65111;50.536;19.204;2023-06-22T09:04:51;13.00;13.00;11.50
76304;PMS7003;65111;50.536;19.204;2023-06-22T09:07:21;14.67;14.67;11.67
76304;PMS7003;65111;50.536;19.204;2023-06-22T09:09:49;11.50;11.50;8.00
76304;PMS7003;65111;50.536;19.204;2023-06-22T09:12:15;14.00;12.67;10.67
76304;PMS7003;65111;50.536;19.204;2023-06-22T09:14:42;11.00;11.00;9.67
76304;PMS7003;65111;50.536;19.204;2023-06-22T09:17:08;14.33;14.33;10.33
76304;PMS7003;65111;50.536;19.204;2023-06-22T09:19:34;11.50;11.50;10.00
76304;PMS7003;65111;50.536;19.204;2023-06-22T09:21:59;12.50;12.50;10.00
76304;PMS7003;65111;50.536;19.204;2023-06-22T09:24:25;11.33;11.33;9.33
76304;PMS7003;65111;50.536;19.204;2023-06-22T09:26:51;15.00;13.00;11.50
76304;PMS7003;65111;50.536;19.204;2023-06-22T09:29:17;14.00;14.00;12.33
76304;PMS7003;65111;50.536;19.204;2023-06-22T09:31:43;14.00;14.00;10.67
76304;PMS7003;65111;50.536;19.204;2023-06-22T09:34:10;13.00;12.67;11.00
76304;PMS7003;65111;50.536;19.204;2023-06-22T09:36:36;12.00;12.00;11.00
76304;PMS7003;65111;50.536;19.204;2023-06-22T09:39:02;12.00;12.00;9.33
76304;PMS7003;65111;50.536;19.204;2023-06-22T09:41:32;8.75;8.75;7.50
76304;PMS7003;65111;50.536;19.204;2023-06-22T09:43:58;11.00;11.00;8.00
76304;PMS7003;65111;50.536;19.204;2023-06-22T09:46:23;14.00;14.00;11.50
76304;PMS7003;65111;50.536;19.204;2023-06-22T09:48:53;13.00;13.00;10.67
76304;PMS7003;65111;50.536;19.204;2023-06-22T09:51:19;13.00;13.00;11.00
76304;PMS7003;65111;50.536;19.204;2023-06-22T09:53:47;11.00;9.75;7.50
76304;PMS7003;65111;50.536;19.204;2023-06-22T09:56:13;9.00;9.00;7.67
76304;PMS7003;65111;50.536;19.204;2023-06-22T09:58:42;9.00;9.00;7.00
76304;PMS7003;65111;50.536;19.204;2023-06-22T10:01:09;12.50;11.50;9.75
76304;PMS7003;65111;50.536;19.204;2023-06-22T10:03:36;10.33;10.33;8.33
76304;PMS7003;65111;50.536;19.204;2023-06-22T10:06:02;13.00;10.50;11.00
76304;PMS7003;65111;50.536;19.204;2023-06-22T10:08:29;12.00;11.00;9.00
76304;PMS7003;65111;50.536;19.204;2023-06-22T10:10:55;12.00;11.00;10.00
76304;PMS7003;65111;50.536;19.204;2023-06-22T10:13:21;12.00;12.00;10.50
76304;PMS7003;65111;50.536;19.204;2023-06-22T10:15:46;10.00;10.00;8.00
76304;PMS7003;65111;50.536;19.204;2023-06-22T10:18:16;8.00;8.00;6.50
76304;PMS7003;65111;50.536;19.204;2023-06-22T10:20:43;12.67;12.67;9.67
76304;PMS7003;65111;50.536;19.204;2023-06-22T10:23:12;10.00;10.00;8.00
76304;PMS7003;65111;50.536;19.204;2023-06-22T10:25:38;12.50;12.50;10.50
76304;PMS7003;65111;50.536;19.204;2023-06-22T10:28:04;10.00;10.00;8.00
76304;PMS7003;65111;50.536;19.204;2023-06-22T10:30:30;12.50;11.00;10.00
76304;PMS7003;65111;50.536;19.204;2023-06-22T10:32:56;11.00;11.00;10.00
76304;PMS7003;65111;50.536;19.204;2023-06-22T10:35:22;11.33;11.33;8.67
76304;PMS7003;65111;50.536;19.204;2023-06-22T10:37:48;10.00;10.00;8.50
76304;PMS7003;65111;50.536;19.204;2023-06-22T10:40:14;14.00;14.00;11.00
76304;PMS7003;65111;50.536;19.204;2023-06-22T10:42:42;11.00;11.00;9.33
76304;PMS7003;65111;50.536;19.204;2023-06-22T10:45:09;10.00;9.50;8.00
76304;PMS7003;65111;50.536;19.204;2023-06-22T10:47:35;8.67;8.33;6.67
76304;PMS7003;65111;50.536;19.204;2023-06-22T10:50:02;12.50;12.50;10.50
76304;PMS7003;65111;50.536;19.204;2023-06-22T10:52:29;14.33;13.67;11.33
76304;PMS7003;65111;50.536;19.204;2023-06-22T10:54:55;11.00;10.33;8.33
76304;PMS7003;65111;50.536;19.204;2023-06-22T10:57:21;11.00;11.00;10.00
76304;PMS7003;65111;50.536;19.204;2023-06-22T10:59:48;13.00;13.00;11.00
76304;PMS7003;65111;50.536;19.204;2023-06-22T11:02:14;13.00;13.00;10.50
76304;PMS7003;65111;50.536;19.204;2023-06-22T11:04:40;11.00;11.00;9.00
76304;PMS7003;65111;50.536;19.204;2023-06-22T11:07:05;13.00;13.00;11.00
76304;PMS7003;65111;50.536;19.204;2023-06-22T11:09:31;10.00;10.00;7.00
76304;PMS7003;65111;50.536;19.204;2023-06-22T11:11:57;10.00;10.00;8.50
76304;PMS7003;65111;50.536;19.204;2023-06-22T11:14:24;15.00;15.00;12.00
76304;PMS7003;65111;50.536;19.204;2023-06-22T11:16:51;16.00;16.00;12.00
76304;PMS7003;65111;50.536;19.204;2023-06-22T11:19:17;11.67;11.67;9.33
76304;PMS7003;65111;50.536;19.204;2023-06-22T11:21:44;13.00;13.00;11.00
76304;PMS7003;65111;50.536;19.204;2023-06-22T11:24:10;13.00;13.00;9.50
76304;PMS7003;65111;50.536;19.204;2023-06-22T11:26:36;11.00;11.00;9.00
76304;PMS7003;65111;50.536;19.204;2023-06-22T11:29:02;12.00;12.00;9.00
76304;PMS7003;65111;50.536;19.204;2023-06-22T11:31:32;12.50;12.50;9.50
76304;PMS7003;65111;50.536;19.204;2023-06-22T11:33:58;10.00;9.00;8.00
76304;PMS7003;65111;50.536;19.204;2023-06-22T11:36:24;13.00;12.00;9.67
76304;PMS7003;65111;50.536;19.204;2023-06-22T11:38:51;10.00;10.00;7.50
76304;PMS7003;65111;50.536;19.204;2023-06-22T11:41:17;13.67;12.33;9.67
76304;PMS7003;65111;50.536;19.204;2023-06-22T11:43:43;12.00;12.00;10.00
76304;PMS7003;65111;50.536;19.204;2023-06-22T11:46:10;12.00;12.00;9.00
76304;PMS7003;65111;50.536;19.204;2023-06-22T11:48:36;11.00;11.00;9.00
76304;PMS7003;65111;50.536;19.204;2023-06-22T11:51:02;14.00;13.00;9.00
76304;PMS7003;65111;50.536;19.204;2023-06-22T11:53:28;11.50;11.00;9.50
76304;PMS7003;65111;50.536;19.204;2023-06-22T11:55:55;15.00;15.00;10.33
76304;PMS7003;65111;50.536;19.204;2023-06-22T11:58:22;15.00;14.00;9.00
76304;PMS7003;65111;50.536;19.204;2023-06-22T12:00:48;14.00;14.00;10.00
76304;PMS7003;65111;50.536;19.204;2023-06-22T12:03:15;16.00;16.00;11.00
76304;PMS7003;65111;50.536;19.204;2023-06-22T12:05:42;13.00;13.00;10.00
76304;PMS7003;65111;50.536;19.204;2023-06-22T12:08:08;15.00;15.00;10.00
76304;PMS7003;65111;50.536;19.204;2023-06-22T12:10:34;14.00;14.00;11.00
76304;PMS7003;65111;50.536;19.204;2023-06-22T12:13:00;12.50;12.50;9.00
76304;PMS7003;65111;50.536;19.204;2023-06-22T12:15:26;10.00;10.00;8.00
76304;PMS7003;65111;50.536;19.204;2023-06-22T12:17:52;13.50;13.50;9.50
76304;PMS7003;65111;50.536;19.204;2023-06-22T12:20:18;14.00;13.00;10.00
76304;PMS7003;65111;50.536;19.204;2023-06-22T12:22:45;13.50;13.50;11.00
76304;PMS7003;65111;50.536;19.204;2023-06-22T12:25:11;16.00;15.00;10.00
76304;PMS7003;65111;50.536;19.204;2023-06-22T12:27:37;15.00;13.00;9.00
76304;PMS7003;65111;50.536;19.204;2023-06-22T12:30:04;12.00;12.00;10.00
76304;PMS7003;65111;50.536;19.204;2023-06-22T12:32:30;14.33;14.33;9.67
76304;PMS7003;65111;50.536;19.204;2023-06-22T12:34:56;14.00;14.00;10.00
76304;PMS7003;65111;50.536;19.204;2023-06-22T12:37:22;11.00;11.00;9.00
76304;PMS7003;65111;50.536;19.204;2023-06-22T12:39:49;12.00;11.00;8.00
76304;PMS7003;65111;50.536;19.204;2023-06-22T12:42:15;15.00;15.00;11.00
76304;PMS7003;65111;50.536;19.204;2023-06-22T12:44:42;16.00;15.00;12.50
76304;PMS7003;65111;50.536;19.204;2023-06-22T12:47:09;13.50;13.50;9.00
76304;PMS7003;65111;50.536;19.204;2023-06-22T12:49:35;13.00;11.00;9.00
76304;PMS7003;65111;50.536;19.204;2023-06-22T12:52:01;14.00;13.00;9.00
76304;PMS7003;65111;50.536;19.204;2023-06-22T12:54:28;13.33;13.33;10.00
76304;PMS7003;65111;50.536;19.204;2023-06-22T12:56:58;13.00;12.00;9.00
76304;PMS7003;65111;50.536;19.204;2023-06-22T12:59:24;13.00;13.00;10.00
76304;PMS7003;65111;50.536;19.204;2023-06-22T13:01:50;15.00;14.00;10.50
76304;PMS7003;65111;50.536;19.204;2023-06-22T13:04:16;15.00;14.00;10.00
76304;PMS7003;65111;50.536;19.204;2023-06-22T13:06:44;15.67;14.67;10.00
76304;PMS7003;65111;50.536;19.204;2023-06-22T13:09:15;15.67;14.33;11.00
76304;PMS7003;65111;50.536;19.204;2023-06-22T13:11:44;15.00;15.00;11.00
76304;PMS7003;65111;50.536;19.204;2023-06-22T13:14:10;17.00;17.00;13.00
76304;PMS7003;65111;50.536;19.204;2023-06-22T13:16:36;17.00;17.00;12.00
76304;PMS7003;65111;50.536;19.204;2023-06-22T13:19:02;15.33;15.33;9.33
76304;PMS7003;65111;50.536;19.204;2023-06-22T13:21:29;12.67;12.00;10.33
76304;PMS7003;65111;50.536;19.204;2023-06-22T13:23:56;13.00;13.00;9.00
76304;PMS7003;65111;50.536;19.204;2023-06-22T13:26:22;11.50;11.50;9.00
76304;PMS7003;65111;50.536;19.204;2023-06-22T13:28:48;13.00;13.00;10.00
76304;PMS7003;65111;50.536;19.204;2023-06-22T13:31:14;16.00;16.00;11.50
76304;PMS7003;65111;50.536;19.204;2023-06-22T13:33:40;13.00;13.00;10.00
76304;PMS7003;65111;50.536;19.204;2023-06-22T13:36:11;14.50;14.50;11.00
76304;PMS7003;65111;50.536;19.204;2023-06-22T13:38:36;13.33;13.33;10.00
76304;PMS7003;65111;50.536;19.204;2023-06-22T13:41:04;14.00;14.00;11.00
76304;PMS7003;65111;50.536;19.204;2023-06-22T13:43:31;15.00;15.00;10.00
76304;PMS7003;65111;50.536;19.204;2023-06-22T13:45:57;10.00;10.00;8.00
76304;PMS7003;65111;50.536;19.204;2023-06-22T13:48:23;13.33;13.33;9.67